Time;durP1;ratioP1;P1;durP2;ratioP2;P2;SDS_P1;SDS_P2;PMS_P1;PMS_P2;Temp;Humidity;BMP_temperature;BMP_pressure;BME280_temperature;BME280_humidity;BME280_pressure;Samples;Min_cycle;Max_cycle;Signal;HPM_P1;HPM_P2
2022/10/10 00:00:43;;;;;;;20.38;8.07;;;;;;;8.12;100.00;101304.06;5074675;28;20024;-64
2022/10/10 00:03:09;;;;;;;20.90;8.20;;;;;;;7.98;100.00;101307.28;5074730;28;20040;-63
2022/10/10 00:05:36;;;;;;;20.27;7.80;;;;;;;7.96;100.00;101306.34;5074823;28;20027;-64
2022/10/10 00:08:01;;;;;;;20.80;8.10;;;;;;;7.89;100.00;101301.81;5074331;28;20025;-64
2022/10/10 00:10:27;;;;;;;20.27;8.02;;;;;;;7.92;100.00;101301.00;5075149;28;20471;-64
2022/10/10 00:12:52;;;;;;;20.90;8.43;;;;;;;7.93;100.00;101294.88;5074876;28;20058;-65
2022/10/10 00:15:18;;;;;;;21.00;8.18;;;;;;;7.92;100.00;101296.63;5073587;28;20035;-64
2022/10/10 00:17:43;;;;;;;20.38;8.23;;;;;;;7.89;100.00;101295.66;5074692;28;20025;-64
2022/10/10 00:20:11;;;;;;;20.63;7.90;;;;;;;7.82;100.00;101295.53;5074278;28;20021;-64
2022/10/10 00:22:37;;;;;;;19.58;7.88;;;;;;;7.75;100.00;101298.88;5074470;28;20032;-64
2022/10/10 00:25:03;;;;;;;19.38;8.15;;;;;;;7.60;100.00;101302.03;5074609;28;20123;-63
2022/10/10 00:27:29;;;;;;;19.35;7.93;;;;;;;7.61;100.00;101306.44;5074428;28;20115;-64
2022/10/10 00:29:54;;;;;;;20.17;8.30;;;;;;;7.61;100.00;101300.28;5073904;28;20052;-64
2022/10/10 00:32:19;;;;;;;20.25;7.97;;;;;;;7.60;100.00;101303.75;5073380;28;20029;-64
2022/10/10 00:34:45;;;;;;;19.50;7.90;;;;;;;7.51;100.00;101296.53;5073914;28;20032;-64
2022/10/10 00:37:10;;;;;;;21.52;8.10;;;;;;;7.49;100.00;101298.25;5074582;28;20021;-64
2022/10/10 00:39:35;;;;;;;19.45;7.85;;;;;;;7.51;100.00;101299.16;5074776;28;20459;-64
2022/10/10 00:42:01;;;;;;;23.33;8.25;;;;;;;7.38;100.00;101292.72;5074361;28;20051;-65
2022/10/10 00:44:27;;;;;;;20.60;8.30;;;;;;;7.28;100.00;101291.63;5073126;28;20028;-65
2022/10/10 00:46:52;;;;;;;20.73;8.40;;;;;;;7.21;100.00;101286.16;5074250;28;20024;-64
2022/10/10 00:49:21;;;;;;;21.52;8.50;;;;;;;7.14;100.00;101288.63;5074346;28;20478;-63
2022/10/10 00:51:50;;;;;;;21.63;8.60;;;;;;;7.10;100.00;101286.75;5074000;28;20028;-63
2022/10/10 00:54:18;;;;;;;21.35;8.38;;;;;;;7.12;100.00;101284.16;5073606;28;20020;-62
2022/10/10 00:56:49;;;;;;;20.25;8.45;;;;;;;7.17;100.00;101284.31;5073807;28;20024;-62
2022/10/10 00:59:15;;;;;;;19.95;8.45;;;;;;;7.16;100.00;101278.16;5073826;28;20025;-63
2022/10/10 01:01:41;;;;;;;20.98;8.20;;;;;;;7.11;100.00;101278.03;5073659;28;20056;-63
2022/10/10 01:04:31;;;;;;;20.55;8.57;;;;;;;7.10;100.00;101275.38;5072244;28;20068;-63
2022/10/10 01:06:57;;;;;;;20.23;8.52;;;;;;;7.01;100.00;101275.16;5072061;28;20020;-63
2022/10/10 01:09:23;;;;;;;20.65;8.60;;;;;;;7.04;100.00;101269.97;5072418;28;20021;-62
2022/10/10 01:11:59;;;;;;;21.67;9.10;;;;;;;6.93;100.00;101262.69;5070690;28;20032;-63
2022/10/10 01:14:41;;;;;;;22.73;9.18;;;;;;;6.93;100.00;101264.41;5070587;28;20056;-62
2022/10/10 01:17:24;;;;;;;20.25;9.20;;;;;;;6.91;100.00;101264.38;5071967;28;20562;-63
2022/10/10 01:20:11;;;;;;;21.30;9.27;;;;;;;6.82;100.00;101258.88;5071287;28;20033;-63
2022/10/10 01:23:01;;;;;;;21.10;8.77;;;;;;;6.77;100.00;101266.66;5073276;28;20384;-63
2022/10/10 01:25:45;;;;;;;21.33;8.80;;;;;;;6.74;100.00;101263.03;5071970;28;20024;-65
2022/10/10 01:28:32;;;;;;;21.63;8.93;;;;;;;6.73;100.00;101271.78;5071743;28;20585;-65
2022/10/10 01:30:58;;;;;;;21.45;8.85;;;;;;;6.68;100.00;101262.88;5070514;28;20036;-62
2022/10/10 01:33:30;;;;;;;20.40;8.70;;;;;;;6.72;100.00;101264.75;5073507;28;20036;-65
2022/10/10 01:36:14;;;;;;;21.23;8.73;;;;;;;6.69;100.00;101262.91;5071228;28;20028;-65
2022/10/10 01:38:52;;;;;;;22.30;9.30;;;;;;;6.65;100.00;101255.81;5071985;28;20095;-65
2022/10/10 01:41:26;;;;;;;21.20;8.70;;;;;;;6.64;100.00;101259.31;5072505;28;20483;-63
2022/10/10 01:43:53;;;;;;;20.77;9.02;;;;;;;6.61;100.00;101256.56;5071645;28;20035;-61
2022/10/10 01:46:18;;;;;;;21.52;9.00;;;;;;;6.58;100.00;101251.22;5072344;28;20039;-62
2022/10/10 01:48:46;;;;;;;21.10;8.60;;;;;;;6.61;100.00;101251.31;5073095;28;20024;-63
2022/10/10 01:51:38;;;;;;;21.83;9.18;;;;;;;6.59;100.00;101253.91;5072796;28;20025;-62
2022/10/10 01:54:31;;;;;;;21.17;8.50;;;;;;;6.61;100.00;101243.44;5069029;28;20044;-62
2022/10/10 01:57:23;;;;;;;21.38;9.05;;;;;;;6.58;100.00;101245.97;5071376;28;20024;-63
2022/10/10 02:00:16;;;;;;;22.85;9.13;;;;;;;6.52;100.00;101249.31;5072536;28;20115;-62
2022/10/10 02:03:07;;;;;;;;;;;;;;;6.54;100.00;101244.09;5070287;28;20040;-63
2022/10/10 02:05:52;;;;;;;21.52;9.07;;;;;;;6.47;100.00;101237.81;5009688;28;20277;-63
2022/10/10 02:08:30;;;;;;;22.35;9.55;;;;;;;6.47;100.00;101231.69;5008345;28;20037;-62
2022/10/10 02:10:59;;;;;;;21.00;9.82;;;;;;;6.52;100.00;101237.94;5010319;28;20030;-63
2022/10/10 02:13:35;;;;;;;21.35;9.80;;;;;;;6.50;100.00;101227.38;5010632;28;20033;-63
2022/10/10 02:16:04;;;;;;;22.35;9.85;;;;;;;6.53;100.00;101226.59;5008367;28;20045;-63
2022/10/10 02:18:32;;;;;;;22.08;9.27;;;;;;;6.56;100.00;101218.78;5010792;28;20026;-62
2022/10/10 02:21:00;;;;;;;22.88;9.25;;;;;;;6.52;100.00;101227.44;5010006;28;20037;-62
2022/10/10 02:23:26;;;;;;;22.50;9.38;;;;;;;6.59;100.00;101224.13;5010074;28;20044;-63
2022/10/10 02:25:54;;;;;;;22.23;9.10;;;;;;;6.61;100.00;101225.94;5010044;28;20034;-63
2022/10/10 02:28:38;;;;;;;20.70;9.02;;;;;;;6.60;100.00;101221.53;5009835;28;20112;-63
2022/10/10 02:31:10;;;;;;;20.95;9.35;;;;;;;6.61;100.00;101222.41;5010418;28;20042;-63
2022/10/10 02:33:44;;;;;;;22.02;9.30;;;;;;;6.61;100.00;101217.16;5010355;28;20037;-65
2022/10/10 02:36:11;;;;;;;20.92;8.80;;;;;;;6.65;100.00;101212.88;5008432;28;20412;-65
2022/10/10 02:38:38;;;;;;;21.23;8.85;;;;;;;6.66;100.00;101212.03;5010386;28;20030;-63
2022/10/10 02:41:06;;;;;;;21.38;8.68;;;;;;;6.68;100.00;101208.59;5010153;28;20392;-63
2022/10/10 02:43:33;;;;;;;22.05;9.43;;;;;;;6.70;100.00;101206.00;5069015;28;20046;-64
2022/10/10 02:46:05;;;;;;;21.23;9.35;;;;;;;6.71;100.00;101202.53;5069896;28;20024;-65
2022/10/10 02:48:31;;;;;;;20.60;8.93;;;;;;;6.77;100.00;101208.84;5071608;28;20158;-65
2022/10/10 02:50:57;;;;;;;22.90;9.30;;;;;;;6.71;100.00;101197.28;5071037;28;20108;-64
2022/10/10 02:53:22;;;;;;;20.75;9.10;;;;;;;6.78;100.00;101196.59;5072339;28;20401;-63
2022/10/10 02:55:47;;;;;;;23.20;9.57;;;;;;;6.78;100.00;101197.47;5070468;28;20493;-64
2022/10/10 02:58:13;;;;;;;21.55;8.88;;;;;;;6.67;100.00;101195.41;5071816;28;20437;-64
2022/10/10 03:00:39;;;;;;;22.98;9.57;;;;;;;6.82;100.00;101190.56;5072084;28;20103;-63
2022/10/10 03:03:04;;;;;;;23.20;9.10;;;;;;;6.85;100.00;101192.38;5071553;28;20502;-62
2022/10/10 03:05:29;;;;;;;20.95;9.32;;;;;;;6.85;100.00;101188.00;5071267;28;20031;-63
2022/10/10 03:07:55;;;;;;;21.90;9.70;;;;;;;6.88;100.00;101187.19;5071361;28;20028;-63
2022/10/10 03:10:20;;;;;;;22.52;9.57;;;;;;;6.88;100.00;101185.44;5071583;28;20021;-63
2022/10/10 03:12:45;;;;;;;22.17;8.90;;;;;;;6.89;100.00;101187.25;5071659;28;20032;-62
2022/10/10 03:15:11;;;;;;;21.77;9.15;;;;;;;6.88;100.00;101185.44;5071331;28;20036;-62
2022/10/10 03:17:36;;;;;;;22.70;9.30;;;;;;;6.91;100.00;101182.91;5071695;28;20028;-62
2022/10/10 03:20:02;;;;;;;22.80;9.23;;;;;;;7.01;100.00;101184.00;5071328;28;20055;-62
2022/10/10 03:22:28;;;;;;;21.77;9.05;;;;;;;7.06;100.00;101184.13;5071846;28;20033;-63
2022/10/10 03:24:53;;;;;;;22.40;9.02;;;;;;;7.04;100.00;101176.19;5071344;28;20042;-62
2022/10/10 03:27:18;;;;;;;21.35;8.95;;;;;;;7.02;100.00;101172.66;5071210;28;20020;-64
2022/10/10 03:29:44;;;;;;;20.73;8.75;;;;;;;7.00;100.00;101171.72;5071831;28;20031;-65
2022/10/10 03:32:09;;;;;;;21.30;8.98;;;;;;;6.97;100.00;101175.19;5071053;28;20024;-65
2022/10/10 03:34:34;;;;;;;21.80;9.13;;;;;;;7.00;100.00;101179.59;5071545;28;20067;-65
2022/10/10 03:37:00;;;;;;;21.30;9.00;;;;;;;7.06;100.00;101174.53;5071735;28;20029;-65
2022/10/10 03:39:25;;;;;;;22.60;9.32;;;;;;;7.06;100.00;101176.22;5071480;28;20013;-64
2022/10/10 03:41:50;;;;;;;21.60;9.13;;;;;;;7.01;100.00;101181.38;5069951;28;20032;-65
2022/10/10 03:44:15;;;;;;;21.70;9.43;;;;;;;6.97;100.00;101184.78;5070753;28;20048;-65
2022/10/10 03:46:41;;;;;;;21.65;8.88;;;;;;;6.93;100.00;101186.47;5071240;28;20529;-65
2022/10/10 03:49:06;;;;;;;21.02;8.93;;;;;;;6.94;100.00;101177.72;5071838;28;20051;-65
2022/10/10 03:51:31;;;;;;;21.50;8.77;;;;;;;6.96;100.00;101194.44;5071369;28;20360;-65
2022/10/10 03:53:57;;;;;;;20.80;9.10;;;;;;;6.95;100.00;101182.13;5070433;28;20032;-64
2022/10/10 03:56:22;;;;;;;22.60;9.15;;;;;;;6.96;100.00;101186.53;5071128;28;20025;-65
2022/10/10 03:58:48;;;;;;;21.17;8.68;;;;;;;6.96;100.00;101183.91;5071262;28;20031;-65
2022/10/10 04:01:13;;;;;;;22.33;8.50;;;;;;;7.01;100.00;101185.78;5071467;28;20032;-65
2022/10/10 04:03:39;;;;;;;20.90;8.77;;;;;;;7.07;100.00;101181.53;5071160;28;20013;-64
2022/10/10 04:06:05;;;;;;;20.83;8.77;;;;;;;7.11;100.00;101180.75;5071182;28;20371;-64
2022/10/10 04:08:30;;;;;;;20.88;9.07;;;;;;;7.04;100.00;101185.84;5072337;28;20059;-64
2022/10/10 04:10:56;;;;;;;21.75;9.10;;;;;;;6.98;100.00;101174.31;5074536;28;20025;-63
2022/10/10 04:13:22;;;;;;;22.08;8.63;;;;;;;6.96;100.00;101178.66;5074649;28;20549;-64
2022/10/10 04:15:51;;;;;;;20.30;8.80;;;;;;;6.93;100.00;101183.84;5074549;28;20131;-64
2022/10/10 04:18:18;;;;;;;23.48;9.20;;;;;;;6.92;100.00;101182.06;5074609;28;20479;-64
2022/10/10 04:20:43;;;;;;;21.77;9.60;;;;;;;6.88;100.00;101180.19;5074504;28;20048;-65
2022/10/10 04:23:08;;;;;;;21.50;9.70;;;;;;;6.84;100.00;101172.19;5074683;28;20068;-64
2022/10/10 04:25:34;;;;;;;22.42;9.52;;;;;;;6.84;100.00;101180.09;5073643;28;20025;-65
2022/10/10 04:27:59;;;;;;;21.15;9.00;;;;;;;6.87;100.00;101183.66;5074515;28;20073;-65
2022/10/10 04:30:24;;;;;;;21.55;9.00;;;;;;;6.86;100.00;101183.63;5074590;28;20522;-65
2022/10/10 04:32:50;;;;;;;22.23;9.35;;;;;;;6.83;100.00;101181.84;5074417;28;20472;-64
2022/10/10 04:35:15;;;;;;;23.23;9.50;;;;;;;6.74;100.00;101178.97;5073815;28;20039;-64
2022/10/10 04:37:40;;;;;;;20.92;9.00;;;;;;;6.75;100.00;101178.13;5074045;28;20047;-64
2022/10/10 04:40:06;;;;;;;22.70;9.60;;;;;;;6.69;100.00;101183.22;5074233;28;20029;-65
2022/10/10 04:42:32;;;;;;;21.52;9.20;;;;;;;6.62;100.00;101183.03;5074399;28;20028;-65
2022/10/10 04:44:57;;;;;;;22.02;9.07;;;;;;;6.62;100.00;101177.78;5073595;28;20047;-64
2022/10/10 04:47:23;;;;;;;21.73;9.55;;;;;;;6.59;100.00;101180.34;5074359;28;20040;-65
2022/10/10 04:49:48;;;;;;;22.40;9.77;;;;;;;6.53;100.00;101184.56;5074484;28;20021;-64
2022/10/10 04:52:14;;;;;;;22.40;9.40;;;;;;;6.50;100.00;101174.84;5073824;28;20035;-64
2022/10/10 04:54:39;;;;;;;21.55;9.50;;;;;;;6.55;100.00;101181.13;5072117;28;20040;-65
2022/10/10 04:57:05;;;;;;;22.05;9.45;;;;;;;6.47;100.00;101177.41;5073730;28;20370;-65
2022/10/10 04:59:31;;;;;;;24.02;10.00;;;;;;;6.46;100.00;101180.88;5073879;28;20098;-64
2022/10/10 05:01:56;;;;;;;21.67;9.45;;;;;;;6.45;100.00;101171.19;5073594;28;20105;-65
2022/10/10 05:04:22;;;;;;;23.65;9.85;;;;;;;6.38;100.00;101177.16;5073362;28;20107;-65
2022/10/10 05:06:47;;;;;;;22.30;9.45;;;;;;;6.38;100.00;101178.06;5073411;28;20375;-65
2022/10/10 05:09:12;;;;;;;23.20;9.82;;;;;;;6.42;100.00;101169.41;5073517;28;20067;-64
2022/10/10 05:11:38;;;;;;;22.05;9.43;;;;;;;6.45;100.00;101173.81;5070259;28;20082;-65
2022/10/10 05:14:03;;;;;;;22.42;9.90;;;;;;;6.44;100.00;101166.81;5073057;28;20056;-65
2022/10/10 05:16:29;;;;;;;21.63;9.23;;;;;;;6.34;100.00;101173.56;5073423;28;20047;-64
2022/10/10 05:18:56;;;;;;;22.25;9.80;;;;;;;6.42;100.00;101166.78;5073556;28;20031;-65
2022/10/10 05:21:22;;;;;;;20.73;9.18;;;;;;;6.37;100.00;101170.13;5073307;28;20028;-65
2022/10/10 05:23:48;;;;;;;22.58;9.68;;;;;;;6.34;100.00;101172.69;5073671;28;20044;-64
2022/10/10 05:26:13;;;;;;;22.00;9.82;;;;;;;6.33;100.00;101169.16;5073409;28;20391;-65
2022/10/10 05:28:38;;;;;;;22.00;9.52;;;;;;;6.34;100.00;101170.06;5073354;28;20082;-65
2022/10/10 05:31:04;;;;;;;23.25;9.60;;;;;;;6.39;100.00;101168.41;5072960;28;20463;-64
2022/10/10 05:33:29;;;;;;;23.20;10.10;;;;;;;6.43;100.00;101176.41;5072742;28;20029;-65
2022/10/10 05:36:06;;;;;;;22.58;10.00;;;;;;;6.40;100.00;101175.47;5072898;28;20399;-65
2022/10/10 05:38:32;;;;;;;21.85;9.45;;;;;;;6.39;100.00;101173.69;5072909;28;20103;-67
2022/10/10 05:40:58;;;;;;;22.17;9.70;;;;;;;6.35;100.00;101162.22;5073131;28;20111;-65
2022/10/10 05:43:23;;;;;;;22.77;9.77;;;;;;;6.35;100.00;101177.06;5072867;28;20416;-66
2022/10/10 05:45:48;;;;;;;24.52;10.20;;;;;;;6.39;100.00;101168.41;5071986;28;20031;-64
2022/10/10 05:48:14;;;;;;;23.23;9.60;;;;;;;6.34;100.00;101175.31;5073035;28;20028;-66
2022/10/10 05:50:44;;;;;;;22.98;9.68;;;;;;;6.42;100.00;101179.00;5072917;28;20467;-67
2022/10/10 05:53:09;;;;;;;23.77;10.05;;;;;;;6.47;100.00;101177.41;5070859;28;20021;-65
2022/10/10 05:55:35;;;;;;;23.25;10.32;;;;;;;6.46;100.00;101170.38;5069921;28;20051;-66
2022/10/10 05:58:01;;;;;;;23.65;10.65;;;;;;;6.54;100.00;101174.09;5072132;28;20036;-67
2022/10/10 06:00:26;;;;;;;22.95;9.90;;;;;;;6.54;100.00;101175.81;5072685;28;20083;-66
2022/10/10 06:02:51;;;;;;;22.88;9.88;;;;;;;6.56;100.00;101177.63;5072750;28;20028;-66
2022/10/10 06:05:17;;;;;;;23.35;10.38;;;;;;;6.59;100.00;101169.81;5072657;28;20033;-66
2022/10/10 06:07:42;;;;;;;22.38;9.80;;;;;;;6.67;100.00;101182.28;5072348;28;20021;-67
2022/10/10 06:10:08;;;;;;;23.50;9.90;;;;;;;6.68;100.00;101182.31;5072473;28;20025;-66
2022/10/10 06:12:33;;;;;;;23.58;9.95;;;;;;;6.73;100.00;101179.81;5069571;28;20560;-66
2022/10/10 06:14:59;;;;;;;23.83;10.02;;;;;;;6.80;100.00;101176.47;5072133;28;20044;-67
2022/10/10 06:17:25;;;;;;;23.20;10.20;;;;;;;6.80;100.00;101177.38;5072671;28;20059;-67
2022/10/10 06:19:52;;;;;;;22.95;9.77;;;;;;;6.88;100.00;101184.56;5071958;28;20132;-67
2022/10/10 06:22:17;;;;;;;21.63;10.00;;;;;;;6.91;100.00;101188.16;5072097;28;20547;-66
2022/10/10 06:24:42;;;;;;;24.33;10.02;;;;;;;6.92;100.00;101186.44;5072118;28;20025;-66
2022/10/10 06:27:07;;;;;;;23.33;9.90;;;;;;;6.96;100.00;101191.78;5072253;28;20024;-67
2022/10/10 06:29:33;;;;;;;22.67;9.85;;;;;;;7.02;100.00;101190.16;5072286;28;20030;-65
2022/10/10 06:31:58;;;;;;;23.75;10.45;;;;;;;7.04;100.00;101185.84;5071607;28;20029;-66
2022/10/10 06:34:23;;;;;;;24.55;10.35;;;;;;;7.06;100.00;101195.56;5070952;28;20373;-66
2022/10/10 06:36:50;;;;;;;23.92;10.18;;;;;;;7.12;100.00;101177.28;5072183;28;20033;-66
2022/10/10 06:39:15;;;;;;;21.67;9.50;;;;;;;7.15;100.00;101192.25;5072003;28;20020;-66
2022/10/10 06:41:41;;;;;;;23.33;10.32;;;;;;;7.20;100.00;101193.22;5072175;28;20021;-65
2022/10/10 06:44:06;;;;;;;22.23;9.55;;;;;;;7.22;100.00;101194.16;5071435;28;20024;-66
2022/10/10 06:46:36;;;;;;;23.02;10.30;;;;;;;7.26;100.00;101201.25;5071160;28;20025;-63
2022/10/10 06:49:02;;;;;;;22.65;9.93;;;;;;;7.27;100.00;101199.53;5071910;28;20459;-66
2022/10/10 06:51:27;;;;;;;22.63;9.48;;;;;;;7.30;100.00;101215.38;5071799;28;20032;-67
2022/10/10 06:53:52;;;;;;;22.23;9.68;;;;;;;7.37;100.00;101201.53;5072034;28;20025;-66
2022/10/10 06:56:20;;;;;;;23.42;10.20;;;;;;;7.49;100.00;101208.81;5071266;28;20024;-66
2022/10/10 06:58:47;;;;;;;24.00;9.95;;;;;;;7.63;100.00;101203.84;5071295;28;20021;-65
2022/10/10 07:01:12;;;;;;;22.88;10.00;;;;;;;7.73;100.00;101205.81;5066943;28;20028;-66
2022/10/10 07:03:38;;;;;;;24.05;10.13;;;;;;;7.80;100.00;101199.81;5069302;28;20028;-67
2022/10/10 07:06:03;;;;;;;23.35;9.73;;;;;;;7.86;100.00;101212.25;5068792;28;20119;-65
2022/10/10 07:08:29;;;;;;;24.05;9.60;;;;;;;7.94;100.00;101209.78;5070556;28;20023;-64
2022/10/10 07:10:55;;;;;;;22.80;9.48;;;;;;;8.06;100.00;101214.41;5069901;28;20067;-65
2022/10/10 07:13:21;;;;;;;24.42;9.63;;;;;;;8.18;100.00;101205.03;5070420;28;20072;-66
2022/10/10 07:15:47;;;;;;;22.23;9.40;;;;;;;8.34;100.00;101211.47;5069978;28;20448;-64
2022/10/10 07:18:12;;;;;;;23.75;9.18;;;;;;;8.49;100.00;101210.00;5070408;28;20074;-65
2022/10/10 07:20:38;;;;;;;22.30;9.02;;;;;;;8.60;100.00;101218.13;5070540;28;20017;-65
2022/10/10 07:23:04;;;;;;;22.45;9.38;;;;;;;8.67;100.00;101220.91;5069508;28;20025;-66
2022/10/10 07:25:29;;;;;;;22.83;9.20;;;;;;;8.77;100.00;101218.44;5070088;28;20012;-65
2022/10/10 07:27:55;;;;;;;21.77;9.73;;;;;;;8.88;100.00;101225.69;5070462;28;20032;-65
2022/10/10 07:30:22;;;;;;;22.17;9.38;;;;;;;9.01;100.00;101229.41;5070431;28;20035;-65
2022/10/10 07:32:47;;;;;;;24.45;9.05;;;;;;;9.16;100.00;101214.69;5070033;28;20024;-64
2022/10/10 07:35:12;;;;;;;21.58;9.40;;;;;;;9.33;100.00;101222.88;5070367;28;20032;-66
2022/10/10 07:37:38;;;;;;;23.85;8.90;;;;;;;9.45;100.00;101223.06;5071286;28;20067;-64
2022/10/10 07:40:04;;;;;;;22.25;9.02;;;;;;;9.63;100.00;101221.56;5070266;28;20425;-65
2022/10/10 07:42:30;;;;;;;23.75;9.00;;;;;;;9.82;100.00;101220.06;5071446;28;20035;-65
2022/10/10 07:44:55;;;;;;;22.23;8.85;;;;;;;9.95;100.00;101236.06;5075341;28;20375;-65
2022/10/10 07:47:20;;;;;;;21.90;9.13;;;;;;;10.08;100.00;101245.03;5074590;28;20024;-64
2022/10/10 07:49:46;;;;;;;22.42;8.73;;;;;;;10.19;100.00;101241.66;5074968;28;20131;-65
2022/10/10 07:52:11;;;;;;;22.55;9.00;;;;;;;10.29;100.00;101236.50;5075959;28;20031;-65
2022/10/10 07:54:36;;;;;;;22.33;8.70;;;;;;;10.45;100.00;101247.28;5074822;28;20036;-65
2022/10/10 07:57:02;;;;;;;22.40;8.68;;;;;;;10.54;100.00;101242.09;5075345;28;20024;-65
2022/10/10 07:59:27;;;;;;;23.52;9.00;;;;;;;10.64;100.00;101245.72;5074983;28;20028;-65
2022/10/10 08:01:53;;;;;;;22.00;8.73;;;;;;;10.74;100.00;101249.34;5074164;28;20021;-64
2022/10/10 08:04:18;;;;;;;21.67;8.70;;;;;;;10.85;100.00;101252.09;5074477;28;20119;-63
2022/10/10 08:06:44;;;;;;;24.48;8.80;;;;;;;10.95;100.00;101253.94;5074987;28;20051;-65
2022/10/10 08:09:10;;;;;;;22.13;9.07;;;;;;;11.04;100.00;101263.72;5073064;28;20041;-65
2022/10/10 08:11:35;;;;;;;22.27;9.10;;;;;;;11.13;100.00;101262.06;5074420;28;20446;-64
2022/10/10 08:14:00;;;;;;;23.85;8.40;;;;;;;11.22;100.00;101252.44;5073977;28;20044;-65
2022/10/10 08:16:26;;;;;;;22.45;8.35;;;;;;;11.29;100.00;101256.91;5074814;28;20024;-62
2022/10/10 08:18:51;;;;;;;22.10;8.30;;;;;;;11.32;100.00;101248.97;5074740;28;20024;-62
2022/10/10 08:21:16;;;;;;;20.52;8.30;;;;;;;11.39;100.00;101255.19;5074471;28;20471;-61
2022/10/10 08:23:42;;;;;;;21.35;8.10;;;;;;;11.47;100.00;101249.06;5074156;28;20024;-61
2022/10/10 08:26:10;;;;;;;21.23;8.55;;;;;;;11.54;100.00;101257.09;5074028;28;20577;-62
2022/10/10 08:28:36;;;;;;;20.52;8.23;;;;;;;11.64;100.00;101248.31;5074415;28;20032;-64
2022/10/10 08:31:10;;;;;;;21.33;8.25;;;;;;;11.72;100.00;101251.88;5074635;28;20120;-62
2022/10/10 08:33:36;;;;;;;21.42;8.20;;;;;;;11.82;100.00;101253.75;5074388;28;20032;-63
2022/10/10 08:36:07;;;;;;;21.23;8.00;;;;;;;12.02;100.00;101258.28;5072045;28;20040;-64
2022/10/10 08:38:33;;;;;;;20.88;8.02;;;;;;;12.38;100.00;101261.97;5069792;28;20024;-63
2022/10/10 08:41:05;;;;;;;20.77;7.60;;;;;;;12.69;100.00;101262.94;5064231;28;20029;-65
2022/10/10 08:43:49;;;;;;;20.90;7.45;;;;;;;12.83;100.00;101251.47;5073578;28;20024;-61
2022/10/10 08:46:35;;;;;;;20.83;7.90;;;;;;;12.99;100.00;101252.38;5072687;28;20036;-64
2022/10/10 08:49:12;;;;;;;21.13;7.47;;;;;;;13.05;100.00;101249.75;5071407;28;20518;-63
2022/10/10 08:51:40;;;;;;;22.45;7.60;;;;;;;13.16;100.00;101249.72;5073968;28;20111;-63
2022/10/10 08:54:08;;;;;;;19.90;7.18;;;;;;;13.29;100.00;101250.63;5071794;28;20079;-62
2022/10/10 08:56:34;;;;;;;20.95;7.85;;;;;;;13.45;100.00;101256.84;5073888;28;20050;-65
2022/10/10 08:59:09;;;;;;;21.33;7.28;;;;;;;13.63;100.00;101247.94;5073336;28;20422;-65
2022/10/10 09:01:37;;;;;;;19.42;7.00;;;;;;;13.92;100.00;101245.22;5073229;28;20078;-63
2022/10/10 09:04:05;;;;;;;22.38;7.30;;;;;;;14.06;100.00;101250.50;5073408;28;20020;-62
2022/10/10 09:06:48;;;;;;;20.60;6.97;;;;;;;14.22;100.00;101264.63;5070035;28;20024;-62
2022/10/10 09:09:39;;;;;;;19.70;6.68;;;;;;;14.36;100.00;101256.56;5071874;28;20028;-63
2022/10/10 09:12:26;;;;;;;20.55;6.60;;;;;;;14.38;100.00;101262.78;5070817;28;20079;-63
2022/10/10 09:15:24;;;;;;;19.85;6.70;;;;;;;14.52;100.00;101257.38;5072454;28;20036;-63
2022/10/10 09:18:01;;;;;;;20.40;6.75;;;;;;;14.64;100.00;101263.53;4990757;28;20042;-62
2022/10/10 09:20:44;;;;;;;19.63;6.40;;;;;;;14.81;100.00;101271.44;4975291;28;20030;-62
2022/10/10 09:23:39;;;;;;;21.33;6.90;;;;;;;14.85;100.00;101276.72;4989596;28;20477;-62
2022/10/10 09:26:10;;;;;;;21.10;6.68;;;;;;;15.17;100.00;101281.81;4990867;28;20027;-62
2022/10/10 09:28:38;;;;;;;21.10;6.82;;;;;;;15.36;100.00;101281.69;4989467;28;20050;-62
2022/10/10 09:31:10;;;;;;;20.92;6.88;;;;;;;15.75;100.00;101283.06;4987946;28;20109;-64
2022/10/10 09:33:42;;;;;;;22.98;6.85;;;;;;;16.12;100.00;101288.06;4988263;28;20492;-64
2022/10/10 09:36:14;;;;;;;20.33;6.70;;;;;;;16.53;100.00;101292.00;4989399;28;20191;-65
2022/10/10 09:38:48;;;;;;;19.60;6.80;;;;;;;16.81;100.00;101296.94;4991778;28;20105;-65
2022/10/10 09:41:19;;;;;;;20.40;6.82;;;;;;;16.64;100.00;101291.81;4991764;28;20493;-66
2022/10/10 09:43:45;;;;;;;19.90;6.63;;;;;;;16.90;100.00;101296.81;4991601;28;20034;-66
2022/10/10 09:46:10;;;;;;;21.48;6.60;;;;;;;17.05;100.00;101298.41;4991203;28;20036;-65
2022/10/10 09:48:40;;;;;;;20.13;6.80;;;;;;;17.51;100.00;101294.09;4992209;28;20034;-66
2022/10/10 09:51:12;;;;;;;20.33;6.40;;;;;;;17.32;100.00;101295.31;4991338;28;20034;-65
2022/10/10 09:53:37;;;;;;;20.30;6.87;;;;;;;16.87;100.00;101306.66;4997058;28;20038;-65
2022/10/10 09:56:04;;;;;;;19.70;6.38;;;;;;;16.45;100.00;101306.34;5072364;28;20106;-62
2022/10/10 09:58:37;;;;;;;20.42;6.80;;;;;;;16.26;100.00;101300.34;5072938;28;20036;-66
2022/10/10 10:01:14;;;;;;;19.33;6.18;;;;;;;16.20;100.00;101295.97;5071121;28;20028;-65
2022/10/10 10:03:40;;;;;;;21.02;6.00;;;;;;;16.10;100.00;101299.63;5072803;28;20376;-65
2022/10/10 10:06:13;;;;;;;20.30;6.20;;;;;;;16.05;100.00;101299.69;5071229;28;20419;-66
2022/10/10 10:08:39;;;;;;;20.60;5.97;;;;;;;16.07;100.00;101305.00;5072831;28;20020;-66
2022/10/10 10:11:17;;;;;;;21.02;6.40;;;;;;;16.02;100.00;101297.94;5071646;28;20060;-65
2022/10/10 10:13:42;;;;;;;20.33;6.40;;;;;;;16.07;100.00;101300.53;5072177;28;20123;-67
2022/10/10 10:16:11;;;;;;;20.38;6.18;;;;;;;16.29;100.00;101303.84;5071396;28;20908;-66
2022/10/10 10:18:46;;;;;;;18.73;5.93;;;;;;;16.43;100.00;101308.16;5072066;28;20028;-65
2022/10/10 10:21:22;;;;;;;21.33;6.50;;;;;;;16.49;100.00;101306.28;5069679;28;20060;-66
2022/10/10 10:23:52;;;;;;;19.63;6.22;;;;;;;16.56;100.00;101299.94;5070377;28;20024;-64
2022/10/10 10:26:42;;;;;;;21.23;6.40;;;;;;;16.43;100.00;101309.03;5070568;28;20340;-66
2022/10/10 10:29:22;;;;;;;19.45;5.85;;;;;;;17.84;100.00;101309.53;5069991;28;20029;-66
2022/10/10 10:31:48;;;;;;;20.75;6.30;;;;;;;18.62;100.00;101313.38;5070793;28;20471;-66
2022/10/10 10:34:33;;;;;;;21.40;6.22;;;;;;;19.09;100.00;101315.94;5070792;28;20055;-66
2022/10/10 10:37:17;;;;;;;19.85;6.22;;;;;;;19.31;100.00;101326.13;5069403;28;20040;-66
2022/10/10 10:40:07;;;;;;;19.58;6.25;;;;;;;19.40;100.00;101327.69;5070043;28;20482;-65
2022/10/10 10:42:38;;;;;;;21.55;6.15;;;;;;;19.64;100.00;101323.50;5072365;28;20410;-63
2022/10/10 10:45:15;;;;;;;21.05;6.68;;;;;;;19.58;100.00;101329.91;5070567;28;20040;-63
2022/10/10 10:47:46;;;;;;;20.00;6.63;;;;;;;19.03;100.00;101326.75;5069369;28;20032;-63
2022/10/10 10:50:25;;;;;;;20.52;6.57;;;;;;;18.41;100.00;101328.09;5069512;28;20035;-63
2022/10/10 10:53:03;;;;;;;22.25;6.32;;;;;;;18.23;100.00;101336.47;5070308;28;20028;-63
2022/10/10 10:55:45;;;;;;;20.02;6.50;;;;;;;18.37;100.00;101334.41;5069488;28;20503;-62
2022/10/10 10:58:23;;;;;;;20.92;6.63;;;;;;;18.82;100.00;101337.00;5070662;28;20070;-63
2022/10/10 11:00:59;;;;;;;21.35;6.10;;;;;;;19.69;100.00;101343.91;5069752;28;20540;-62
2022/10/10 11:03:46;;;;;;;20.25;6.18;;;;;;;20.55;100.00;101346.06;5070472;28;20132;-64
2022/10/10 11:06:31;;;;;;;20.15;5.97;;;;;;;20.87;100.00;101344.25;5068403;28;20033;-63
2022/10/10 11:09:18;;;;;;;19.27;6.00;;;;;;;20.77;100.00;101364.28;5067978;28;20021;-64
2022/10/10 11:12:25;;;;;;;22.73;6.30;;;;;;;20.06;100.00;101357.31;5069087;28;20086;-63
2022/10/10 11:14:59;;;;;;;21.13;6.60;;;;;;;19.44;100.00;101346.34;5007837;28;20431;-63
2022/10/10 11:17:36;;;;;;;20.65;6.53;;;;;;;19.61;100.00;101353.06;5010814;28;20057;-63
2022/10/10 11:20:29;;;;;;;21.40;6.90;;;;;;;20.32;100.00;101373.56;5013602;28;20022;-63
2022/10/10 11:23:04;;;;;;;20.85;6.43;;;;;;;21.50;100.00;101367.38;5014580;28;20548;-64
2022/10/10 11:25:35;;;;;;;20.88;6.55;;;;;;;22.97;71.64;101368.44;5013591;28;20462;-63